Time;durP1;ratioP1;P1;durP2;ratioP2;P2;SDS_P1;SDS_P2;PMS_P1;PMS_P2;Temp;Humidity;BMP_temperature;BMP_pressure;BME280_temperature;BME280_humidity;BME280_pressure;Samples;Min_cycle;Max_cycle;Signal;HPM_P1;HPM_P2
2022/05/19 00:31:12;;;;;;;10.70;10.10;;;;;;;;;;6281213;22;20503;-92
2022/05/19 00:34:16;;;;;;;9.40;8.90;;;;;;;;;;6333740;22;20404;-93
2022/05/19 00:39:57;;;;;;;8.83;8.33;;;;;;;;;;6302652;22;20450;-90
2022/05/19 01:24:04;;;;;;;3.60;3.57;;;;;;;;;;6214174;22;20452;-93
2022/05/19 01:27:06;;;;;;;6.70;3.90;;;;;;;;;;6335502;22;20447;-94
2022/05/19 01:30:11;;;;;;;3.53;3.33;;;;;;;;;;6257309;22;20481;-93
2022/05/19 01:33:37;;;;;;;3.77;3.67;;;;;;;;;;6254181;22;20443;-92
2022/05/19 01:44:27;;;;;;;3.70;3.70;;;;;;;;;;6314492;22;20458;-92
2022/05/19 01:47:30;;;;;;;3.63;3.43;;;;;;;;;;6331023;22;20498;-92
2022/05/19 01:50:36;;;;;;;3.40;3.40;;;;;;;;;;6330176;22;20463;-93
2022/05/19 01:53:45;;;;;;;3.53;3.43;;;;;;;;;;6332185;22;20450;-92
2022/05/19 02:09:56;;;;;;;3.83;3.83;;;;;;;;;;6305121;22;20439;-94
2022/05/19 02:12:33;;;;;;;5.27;3.63;;;;;;;;;;6303762;22;20367;-93
2022/05/19 02:15:03;;;;;;;4.17;4.07;;;;;;;;;;6278169;22;20724;-93
2022/05/19 02:17:31;;;;;;;3.97;3.77;;;;;;;;;;6276799;22;20478;-93
2022/05/19 02:19:59;;;;;;;4.53;4.17;;;;;;;;;;6277930;22;20402;-94
2022/05/19 02:22:45;;;;;;;4.13;3.93;;;;;;;;;;6276546;22;20400;-94
2022/05/19 02:25:36;;;;;;;4.10;4.00;;;;;;;;;;6299379;22;20434;-93
2022/05/19 02:28:29;;;;;;;3.87;3.80;;;;;;;;;;6278289;22;20886;-93
2022/05/19 02:30:55;;;;;;;3.67;3.57;;;;;;;;;;6269208;22;20706;-94
2022/05/19 02:33:22;;;;;;;3.57;3.57;;;;;;;;;;6276505;22;20388;-94
2022/05/19 02:35:48;;;;;;;3.80;3.60;;;;;;;;;;6275546;22;20392;-94
2022/05/19 02:38:15;;;;;;;3.50;3.50;;;;;;;;;;6280212;22;20761;-93
2022/05/19 02:40:50;;;;;;;3.70;3.60;;;;;;;;;;6277303;22;20407;-93
2022/05/19 02:43:19;;;;;;;4.03;3.83;;;;;;;;;;6277441;22;20402;-93
2022/05/19 02:45:48;;;;;;;5.33;3.93;;;;;;;;;;6303373;22;20415;-93
2022/05/19 02:48:15;;;;;;;3.60;3.50;;;;;;;;;;6278252;22;20398;-94
2022/05/19 02:51:01;;;;;;;4.20;4.10;;;;;;;;;;6275258;22;20441;-93
2022/05/19 02:54:06;;;;;;;4.50;4.00;;;;;;;;;;6305069;22;20386;-93
2022/05/19 02:57:16;;;;;;;4.47;4.23;;;;;;;;;;6304704;22;20406;-93
2022/05/19 03:00:22;;;;;;;4.17;4.07;;;;;;;;;;6305011;22;20379;-93
2022/05/19 03:03:28;;;;;;;3.67;3.67;;;;;;;;;;6304861;22;20375;-92
2022/05/19 03:06:33;;;;;;;3.90;3.80;;;;;;;;;;6306732;22;20746;-93
2022/05/19 03:09:42;;;;;;;4.10;3.80;;;;;;;;;;6279285;22;20903;-93
2022/05/19 03:12:45;;;;;;;4.77;4.37;;;;;;;;;;6275819;22;20412;-94
2022/05/19 03:15:51;;;;;;;4.83;4.70;;;;;;;;;;6277008;22;20380;-93
2022/05/19 03:18:57;;;;;;;5.33;4.67;;;;;;;;;;6275432;22;20388;-93
2022/05/19 03:22:02;;;;;;;4.70;4.50;;;;;;;;;;6272892;22;20380;-93
2022/05/19 03:25:08;;;;;;;4.27;4.07;;;;;;;;;;6269609;22;20482;-94
2022/05/19 03:28:14;;;;;;;4.27;4.10;;;;;;;;;;6274911;22;20476;-92
2022/05/19 03:31:20;;;;;;;4.23;4.13;;;;;;;;;;6273376;22;20380;-93
2022/05/19 03:34:26;;;;;;;3.90;3.80;;;;;;;;;;6277080;22;20376;-94
2022/05/19 03:37:32;;;;;;;4.17;3.97;;;;;;;;;;6273655;22;20384;-92
2022/05/19 03:40:38;;;;;;;3.80;3.70;;;;;;;;;;6275815;22;20376;-93
2022/05/19 03:43:44;;;;;;;4.70;4.43;;;;;;;;;;6277769;22;20392;-92
2022/05/19 03:46:52;;;;;;;5.30;4.90;;;;;;;;;;6283230;22;20508;-92
2022/05/19 03:49:58;;;;;;;4.23;4.03;;;;;;;;;;6279514;22;20387;-92
2022/05/19 03:53:01;;;;;;;5.00;4.70;;;;;;;;;;6276621;22;20384;-93
2022/05/19 03:56:07;;;;;;;4.00;4.00;;;;;;;;;;6277089;22;20876;-92
2022/05/19 03:59:13;;;;;;;4.17;3.80;;;;;;;;;;6279895;22;20412;-93
2022/05/19 04:02:19;;;;;;;3.67;3.57;;;;;;;;;;6280015;22;20372;-93
2022/05/19 04:05:25;;;;;;;3.87;3.67;;;;;;;;;;6281113;22;20882;-91
2022/05/19 04:08:31;;;;;;;3.80;3.70;;;;;;;;;;6278988;22;20434;-92
2022/05/19 04:11:37;;;;;;;4.17;3.87;;;;;;;;;;6287256;22;20384;-92
2022/05/19 04:14:42;;;;;;;4.27;4.17;;;;;;;;;;6281903;22;20385;-92
2022/05/19 04:17:48;;;;;;;4.17;4.07;;;;;;;;;;6288007;22;20389;-93
2022/05/19 04:20:54;;;;;;;4.10;4.00;;;;;;;;;;6290782;22;20422;-93
2022/05/19 04:24:06;;;;;;;3.50;3.50;;;;;;;;;;6294493;22;20435;-93
2022/05/19 04:27:11;;;;;;;4.20;3.83;;;;;;;;;;6293035;22;20447;-93
2022/05/19 04:30:15;;;;;;;4.60;4.30;;;;;;;;;;6296032;22;20459;-93
2022/05/19 04:33:24;;;;;;;3.83;3.70;;;;;;;;;;6290108;22;20373;-93
2022/05/19 04:36:30;;;;;;;4.07;4.00;;;;;;;;;;6285020;22;20455;-93
2022/05/19 04:39:35;;;;;;;3.80;3.43;;;;;;;;;;6284332;22;20884;-91
2022/05/19 04:42:44;;;;;;;3.87;3.67;;;;;;;;;;6276767;22;20730;-93
2022/05/19 04:45:47;;;;;;;4.80;3.77;;;;;;;;;;6276982;22;21078;-93
2022/05/19 04:48:53;;;;;;;3.53;3.33;;;;;;;;;;6275475;22;20937;-93
2022/05/19 04:51:59;;;;;;;3.87;3.77;;;;;;;;;;6274091;22;20830;-93
2022/05/19 04:55:23;;;;;;;3.97;3.63;;;;;;;;;;6274545;22;20681;-90
2022/05/19 04:58:22;;;;;;;4.00;3.87;;;;;;;;;;6276054;22;20376;-92
2022/05/19 05:01:26;;;;;;;3.73;3.63;;;;;;;;;;6272820;22;20384;-91
2022/05/19 05:04:35;;;;;;;3.93;3.73;;;;;;;;;;6278753;22;20444;-93
2022/05/19 05:07:41;;;;;;;3.50;3.30;;;;;;;;;;6276543;22;20447;-92
2022/05/19 05:10:46;;;;;;;4.27;4.07;;;;;;;;;;6275114;22;20427;-93
2022/05/19 05:13:52;;;;;;;3.10;2.90;;;;;;;;;;6275654;22;20384;-91
2022/05/19 05:16:58;;;;;;;3.40;3.20;;;;;;;;;;6272934;22;20508;-92
2022/05/19 05:20:11;;;;;;;3.70;3.60;;;;;;;;;;6274744;22;20411;-93
2022/05/19 05:23:19;;;;;;;3.20;3.10;;;;;;;;;;6279912;22;20403;-96
2022/05/19 05:26:06;;;;;;;4.13;3.93;;;;;;;;;;6276514;22;20477;-92
2022/05/19 05:28:32;;;;;;;6.03;4.10;;;;;;;;;;6257385;22;20397;-96
2022/05/19 05:31:02;;;;;;;3.97;3.77;;;;;;;;;;6257291;22;20868;-94
2022/05/19 05:33:28;;;;;;;4.23;3.80;;;;;;;;;;6254928;22;20423;-95
2022/05/19 05:36:00;;;;;;;4.70;4.53;;;;;;;;;;6256453;22;20397;-94
2022/05/19 05:38:46;;;;;;;4.20;4.00;;;;;;;;;;6254785;22;20446;-93
2022/05/19 05:41:52;;;;;;;3.83;3.83;;;;;;;;;;6279070;22;20377;-91
2022/05/19 05:44:58;;;;;;;3.57;3.57;;;;;;;;;;6286773;22;20848;-92
2022/05/19 05:48:07;;;;;;;4.50;4.30;;;;;;;;;;6282542;22;20376;-92
2022/05/19 05:51:10;;;;;;;5.03;4.10;;;;;;;;;;6284468;22;20385;-93
2022/05/19 05:54:21;;;;;;;4.60;4.20;;;;;;;;;;6284949;22;20392;-93
2022/05/19 06:05:20;;;;;;;4.40;4.20;;;;;;;;;;6322446;22;20770;-94
2022/05/19 06:11:24;;;;;;;4.40;4.10;;;;;;;;;;6319773;22;20964;-95
2022/05/19 06:14:39;;;;;;;4.37;4.00;;;;;;;;;;6320597;22;20463;-90
2022/05/19 06:23:06;;;;;;;4.40;4.20;;;;;;;;;;6299958;22;20962;-93
2022/05/19 06:26:12;;;;;;;9.90;4.70;;;;;;;;;;6301954;22;20431;-92
2022/05/19 06:29:18;;;;;;;4.17;3.93;;;;;;;;;;6312779;22;20426;-94
2022/05/19 06:32:23;;;;;;;4.50;4.30;;;;;;;;;;6313399;22;20418;-92
2022/05/19 06:35:29;;;;;;;5.20;4.70;;;;;;;;;;6323054;22;20384;-91
2022/05/19 06:38:35;;;;;;;4.10;4.00;;;;;;;;;;6322497;22;20403;-90
2022/05/19 06:44:46;;;;;;;4.20;4.10;;;;;;;;;;6325978;22;20406;-89
2022/05/19 06:47:52;;;;;;;4.40;4.20;;;;;;;;;;6318272;22;20394;-92
2022/05/19 06:50:58;;;;;;;4.70;4.43;;;;;;;;;;6319153;22;20397;-93
2022/05/19 06:54:04;;;;;;;3.60;3.50;;;;;;;;;;6313415;22;20395;-92
2022/05/19 06:57:09;;;;;;;10.90;4.60;;;;;;;;;;6317023;22;20407;-93
2022/05/19 07:00:16;;;;;;;4.60;4.47;;;;;;;;;;6315383;22;20478;-92
2022/05/19 07:03:21;;;;;;;4.17;3.97;;;;;;;;;;6315417;22;20390;-92
2022/05/19 07:06:29;;;;;;;5.53;4.87;;;;;;;;;;6315302;22;20435;-91
2022/05/19 07:09:33;;;;;;;4.20;4.13;;;;;;;;;;6315765;22;20395;-93
2022/05/19 07:12:43;;;;;;;4.43;4.33;;;;;;;;;;6322138;22;20391;-94
2022/05/19 07:15:48;;;;;;;4.53;4.40;;;;;;;;;;6322325;22;20396;-94
2022/05/19 07:18:33;;;;;;;4.70;4.40;;;;;;;;;;6321095;22;20380;-95
2022/05/19 07:21:20;;;;;;;4.17;3.90;;;;;;;;;;6291329;22;21025;-94
2022/05/19 07:24:25;;;;;;;4.17;3.97;;;;;;;;;;6317783;22;20386;-93
2022/05/19 07:27:31;;;;;;;4.40;4.30;;;;;;;;;;6318598;22;20474;-93
2022/05/19 07:30:37;;;;;;;4.30;4.03;;;;;;;;;;6320102;22;20383;-91
2022/05/19 07:33:45;;;;;;;3.50;3.50;;;;;;;;;;6315187;22;20533;-93
2022/05/19 07:36:52;;;;;;;4.17;3.97;;;;;;;;;;6316194;22;20391;-92
2022/05/19 07:40:02;;;;;;;4.70;4.50;;;;;;;;;;6311342;22;20383;-92
2022/05/19 07:43:57;;;;;;;5.40;4.90;;;;;;;;;;6312886;22;20395;-92
2022/05/19 07:46:23;;;;;;;3.90;3.80;;;;;;;;;;6299293;22;20434;-96
2022/05/19 07:49:26;;;;;;;3.97;3.87;;;;;;;;;;6313660;22;20445;-88
2022/05/19 07:52:32;;;;;;;5.47;5.17;;;;;;;;;;6304537;22;20390;-92
2022/05/19 07:55:38;;;;;;;3.67;3.67;;;;;;;;;;6303013;22;20387;-88
2022/05/19 07:58:31;;;;;;;3.80;3.70;;;;;;;;;;6304952;22;20398;-88
2022/05/19 08:01:00;;;;;;;6.20;4.93;;;;;;;;;;6301840;22;21090;-89
2022/05/19 08:06:43;;;;;;;4.50;4.30;;;;;;;;;;6326708;22;20507;-90
2022/05/19 08:15:34;;;;;;;4.10;4.03;;;;;;;;;;6314992;22;20737;-92
2022/05/19 08:26:14;;;;;;;4.27;3.93;;;;;;;;;;6225396;23;20450;-92
2022/05/19 08:29:25;;;;;;;4.37;4.20;;;;;;;;;;6233454;23;20378;-91
2022/05/19 08:32:27;;;;;;;4.57;4.37;;;;;;;;;;6235326;23;20404;-92
2022/05/19 08:38:15;;;;;;;4.73;4.37;;;;;;;;;;6324688;22;20427;-92
2022/05/19 08:41:20;;;;;;;;;;;;;;;;;;;;;
2022/05/19 08:44:10;;;;;;;4.43;4.20;;;;;;;;;;6323307;22;20383;-90
2022/05/19 08:46:40;;;;;;;5.13;4.90;;;;;;;;;;6288330;22;21313;-91
2022/05/19 08:49:25;;;;;;;4.80;4.63;;;;;;;;;;6327659;22;20387;-90
2022/05/19 08:51:55;;;;;;;4.40;4.20;;;;;;;;;;6283828;22;20407;-92
2022/05/19 08:54:23;;;;;;;4.47;4.17;;;;;;;;;;6278887;22;20376;-91
2022/05/19 08:57:03;;;;;;;4.90;4.60;;;;;;;;;;6288717;22;20392;-93
2022/05/19 08:59:58;;;;;;;3.63;3.50;;;;;;;;;;6326694;22;21087;-92
2022/05/19 09:03:04;;;;;;;4.10;3.80;;;;;;;;;;6326481;22;20379;-91
2022/05/19 09:05:59;;;;;;;3.43;3.43;;;;;;;;;;6328282;22;20411;-93
2022/05/19 09:09:25;;;;;;;4.33;4.23;;;;;;;;;;6316587;22;20520;-93
2022/05/19 09:12:41;;;;;;;3.37;3.37;;;;;;;;;;6330397;22;20402;-92
2022/05/19 09:21:13;;;;;;;21.90;5.07;;;;;;;;;;6308924;22;20477;-91
2022/05/19 09:38:55;;;;;;;3.53;3.43;;;;;;;;;;6310946;22;20419;-92
2022/05/19 09:42:05;;;;;;;3.37;3.20;;;;;;;;;;6173238;23;20404;-94
2022/05/19 09:45:11;;;;;;;3.37;3.27;;;;;;;;;;6139357;23;20393;-93
2022/05/19 09:50:53;;;;;;;3.70;3.60;;;;;;;;;;6298595;22;20428;-91
2022/05/19 09:54:00;;;;;;;3.17;3.17;;;;;;;;;;6295441;22;20384;-94
2022/05/19 10:18:39;;;;;;;3.43;3.20;;;;;;;;;;6307926;22;20462;-92
2022/05/19 10:21:51;;;;;;;3.70;3.60;;;;;;;;;;6327268;22;20426;-94
2022/05/19 10:33:47;;;;;;;3.60;3.50;;;;;;;;;;6309678;22;20906;-90
2022/05/19 10:36:51;;;;;;;3.60;3.60;;;;;;;;;;6302459;22;20391;-89
2022/05/19 10:39:46;;;;;;;4.23;4.03;;;;;;;;;;6294537;22;20437;-91
2022/05/19 10:42:32;;;;;;;3.57;3.50;;;;;;;;;;6303297;22;20384;-89
2022/05/19 10:45:36;;;;;;;3.90;3.70;;;;;;;;;;6301752;22;20455;-88
2022/05/19 10:48:41;;;;;;;5.40;4.73;;;;;;;;;;6313152;22;20434;-90
2022/05/19 10:51:59;;;;;;;3.87;3.57;;;;;;;;;;6304884;22;20386;-89
2022/05/19 10:55:17;;;;;;;3.17;3.17;;;;;;;;;;6257690;22;20387;-88
2022/05/19 10:58:04;;;;;;;3.50;3.40;;;;;;;;;;6243633;22;20441;-89
2022/05/19 11:01:25;;;;;;;3.97;3.77;;;;;;;;;;6302723;22;20472;-89
2022/05/19 11:04:31;;;;;;;4.10;4.00;;;;;;;;;;6304629;22;20767;-87
2022/05/19 11:07:36;;;;;;;4.67;3.80;;;;;;;;;;6301918;22;20465;-89
2022/05/19 12:01:33;;;;;;;3.87;3.67;;;;;;;;;;6312265;22;20458;-92
2022/05/19 12:04:18;;;;;;;3.90;3.90;;;;;;;;;;6298903;22;20581;-93
2022/05/19 12:07:11;;;;;;;3.73;3.63;;;;;;;;;;6291528;22;20508;-90
2022/05/19 12:10:17;;;;;;;3.73;3.50;;;;;;;;;;6285990;22;20458;-94
2022/05/19 12:16:10;;;;;;;3.70;3.60;;;;;;;;;;6305376;22;20479;-89
2022/05/19 12:19:24;;;;;;;4.20;4.00;;;;;;;;;;6323169;22;20379;-91
2022/05/19 12:22:26;;;;;;;4.50;4.30;;;;;;;;;;6324217;22;20374;-88
2022/05/19 12:25:43;;;;;;;4.53;4.23;;;;;;;;;;6324056;22;20374;-91
2022/05/19 12:28:48;;;;;;;4.40;4.20;;;;;;;;;;6330083;22;20425;-89
2022/05/19 12:31:59;;;;;;;3.97;3.97;;;;;;;;;;6327998;22;20398;-89
2022/05/19 12:35:11;;;;;;;4.07;3.80;;;;;;;;;;6321753;22;20713;-88
2022/05/19 12:38:21;;;;;;;4.20;4.00;;;;;;;;;;6324219;22;20405;-90
2022/05/19 12:41:27;;;;;;;4.07;4.07;;;;;;;;;;6321244;22;20375;-87
2022/05/19 12:44:34;;;;;;;4.50;4.30;;;;;;;;;;6325639;22;20371;-87
2022/05/19 12:47:41;;;;;;;4.57;4.27;;;;;;;;;;6329952;22;20434;-89
2022/05/19 12:50:40;;;;;;;4.13;4.10;;;;;;;;;;6314531;22;20367;-88
2022/05/19 12:53:29;;;;;;;4.63;4.53;;;;;;;;;;6315591;22;20376;-89
2022/05/19 12:56:35;;;;;;;7.47;7.00;;;;;;;;;;6318309;22;20740;-88
2022/05/19 12:59:23;;;;;;;4.80;4.70;;;;;;;;;;6312786;22;20444;-87
2022/05/19 13:02:25;;;;;;;4.73;4.57;;;;;;;;;;6317460;22;20391;-86
2022/05/19 13:05:31;;;;;;;5.97;5.53;;;;;;;;;;6322070;22;20394;-90
2022/05/19 13:08:49;;;;;;;5.50;5.20;;;;;;;;;;6318189;22;20860;-88
2022/05/19 13:12:01;;;;;;;4.93;4.73;;;;;;;;;;6315707;22;20472;-87
2022/05/19 13:15:07;;;;;;;5.63;5.37;;;;;;;;;;6317781;22;20479;-87
2022/05/19 13:18:13;;;;;;;13.77;4.70;;;;;;;;;;6311797;22;20375;-87
2022/05/19 13:21:09;;;;;;;30.63;4.67;;;;;;;;;;6321564;22;20386;-86
2022/05/19 13:24:18;;;;;;;31.80;5.33;;;;;;;;;;6324389;22;20384;-88
2022/05/19 13:30:29;;;;;;;5.13;2.27;;;;;;;;;;6318943;22;20913;-91
2022/05/19 13:33:38;;;;;;;6.60;2.37;;;;;;;;;;6319616;22;20372;-89
2022/05/19 13:36:51;;;;;;;17.83;3.00;;;;;;;;;;6322335;22;20415;-89
2022/05/19 13:56:15;;;;;;;7.97;3.93;;;;;;;;;;6352328;22;20904;-95
2022/05/19 14:02:32;;;;;;;7.10;3.60;;;;;;;;;;6261111;22;20474;-89
2022/05/19 14:05:40;;;;;;;4.73;3.57;;;;;;;;;;6287294;22;20399;-90
2022/05/19 14:08:44;;;;;;;4.60;4.30;;;;;;;;;;6281431;22;20476;-87
2022/05/19 14:11:50;;;;;;;4.23;3.67;;;;;;;;;;6292518;22;20388;-92
2022/05/19 14:14:37;;;;;;;5.23;3.20;;;;;;;;;;6290612;22;20436;-91
2022/05/19 14:17:23;;;;;;;7.60;3.77;;;;;;;;;;6269077;22;20388;-90
2022/05/19 14:20:32;;;;;;;5.30;3.70;;;;;;;;;;6296210;22;20432;-91
2022/05/19 14:26:14;;;;;;;10.37;4.80;;;;;;;;;;6279552;22;20529;-93
2022/05/19 14:48:33;;;;;;;5.80;3.27;;;;;;;;;;6330389;22;20478;-92
2022/05/19 14:51:03;;;;;;;4.93;3.73;;;;;;;;;;6292520;22;20411;-94
2022/05/19 14:53:30;;;;;;;4.00;3.60;;;;;;;;;;6294710;22;20391;-93
2022/05/19 14:56:06;;;;;;;6.53;3.93;;;;;;;;;;6296546;22;20403;-93
2022/05/19 14:58:38;;;;;;;6.53;3.20;;;;;;;;;;6299286;22;20434;-93
2022/05/19 15:01:05;;;;;;;3.77;3.27;;;;;;;;;;6270549;22;20451;-94
2022/05/19 15:06:10;;;;;;;3.60;3.30;;;;;;;;;;6315915;22;20456;-96
2022/05/19 15:08:48;;;;;;;6.73;3.20;;;;;;;;;;6276324;22;20486;-92
2022/05/19 15:13:50;;;;;;;5.83;4.17;;;;;;;;;;6264928;22;20445;-95
2022/05/19 15:16:17;;;;;;;13.90;5.27;;;;;;;;;;6259339;23;20434;-89
2022/05/19 15:18:44;;;;;;;15.70;5.33;;;;;;;;;;6229163;23;20440;-91
2022/05/19 15:21:10;;;;;;;9.93;9.00;;;;;;;;;;6232930;23;20390;-95
2022/05/19 15:23:39;;;;;;;7.37;5.77;;;;;;;;;;6233937;23;20457;-93
2022/05/19 15:28:46;;;;;;;7.77;4.33;;;;;;;;;;6302601;22;20510;-90
2022/05/19 15:31:15;;;;;;;6.37;3.83;;;;;;;;;;6280855;22;20448;-88
2022/05/19 15:33:43;;;;;;;4.20;4.00;;;;;;;;;;6269771;22;20389;-90
2022/05/19 15:36:13;;;;;;;8.97;4.60;;;;;;;;;;6265030;22;20388;-93
2022/05/19 15:38:59;;;;;;;21.97;8.37;;;;;;;;;;6267045;22;20423;-93
2022/05/19 15:42:04;;;;;;;9.30;5.60;;;;;;;;;;6293000;22;20384;-96
2022/05/19 15:45:10;;;;;;;22.57;9.10;;;;;;;;;;6277456;22;20476;-89
2022/05/19 15:48:17;;;;;;;3.33;3.23;;;;;;;;;;6290966;22;20890;-88
2022/05/19 15:51:22;;;;;;;4.17;3.80;;;;;;;;;;6286717;22;20392;-92
2022/05/19 15:54:08;;;;;;;8.33;4.43;;;;;;;;;;6299406;22;20446;-95
2022/05/19 15:56:35;;;;;;;5.60;5.20;;;;;;;;;;6267915;22;20412;-92
2022/05/19 16:01:37;;;;;;;5.57;4.40;;;;;;;;;;6306575;22;20476;-87
2022/05/19 16:04:07;;;;;;;4.33;3.97;;;;;;;;;;6297741;22;20417;-91
2022/05/19 16:06:39;;;;;;;4.13;3.93;;;;;;;;;;6298962;22;20437;-91
2022/05/19 16:09:05;;;;;;;7.83;5.07;;;;;;;;;;6251752;22;20563;-95
2022/05/19 16:11:34;;;;;;;10.63;4.90;;;;;;;;;;6246985;22;20539;-91
2022/05/19 16:28:01;;;;;;;5.73;4.93;;;;;;;;;;6327034;22;20431;-88
2022/05/19 16:31:07;;;;;;;7.13;4.13;;;;;;;;;;6314522;22;20546;-90
2022/05/19 16:34:13;;;;;;;3.53;3.23;;;;;;;;;;6315723;22;20376;-89
2022/05/19 16:37:19;;;;;;;7.13;3.63;;;;;;;;;;6313009;22;20501;-90
2022/05/19 16:40:24;;;;;;;2.90;2.70;;;;;;;;;;6316005;22;20407;-91
2022/05/19 16:43:30;;;;;;;4.30;3.90;;;;;;;;;;6308915;22;20415;-89
2022/05/19 16:46:38;;;;;;;12.47;4.07;;;;;;;;;;6314461;22;20488;-92
2022/05/19 16:49:43;;;;;;;3.77;3.30;;;;;;;;;;6267345;22;20401;-95
2022/05/19 16:52:49;;;;;;;6.43;4.07;;;;;;;;;;6286281;22;20384;-93
2022/05/19 16:59:00;;;;;;;6.27;3.43;;;;;;;;;;6288742;22;20395;-92
2022/05/19 17:02:07;;;;;;;4.07;3.67;;;;;;;;;;6281592;22;20381;-93
2022/05/19 17:05:13;;;;;;;3.63;3.53;;;;;;;;;;6287629;22;20410;-93
2022/05/19 17:08:19;;;;;;;5.00;4.80;;;;;;;;;;6284932;22;20376;-94
2022/05/19 17:11:24;;;;;;;4.53;4.20;;;;;;;;;;6285598;22;20844;-93
2022/05/19 17:14:43;;;;;;;4.50;4.20;;;;;;;;;;6282807;22;20389;-91
2022/05/19 17:17:50;;;;;;;4.73;4.50;;;;;;;;;;6283395;22;20388;-90
2022/05/19 17:20:57;;;;;;;5.37;4.90;;;;;;;;;;6274179;22;20400;-92
2022/05/19 17:24:03;;;;;;;5.33;4.63;;;;;;;;;;6276827;22;20392;-91
2022/05/19 17:26:49;;;;;;;8.73;4.87;;;;;;;;;;6286817;22;20495;-91
2022/05/19 17:29:36;;;;;;;5.40;5.00;;;;;;;;;;6254569;22;20438;-92
2022/05/19 17:32:56;;;;;;;6.70;5.37;;;;;;;;;;6289198;22;20413;-93
2022/05/19 17:36:03;;;;;;;5.53;5.23;;;;;;;;;;6278122;22;20909;-94
2022/05/19 17:39:08;;;;;;;7.03;5.37;;;;;;;;;;6278433;22;20408;-94
2022/05/19 17:42:14;;;;;;;4.83;4.57;;;;;;;;;;6278363;22;20388;-95
2022/05/19 17:45:20;;;;;;;8.83;5.40;;;;;;;;;;6282304;22;20426;-93
2022/05/19 17:48:26;;;;;;;8.13;4.93;;;;;;;;;;6278614;22;20428;-94
2022/05/19 17:51:32;;;;;;;6.50;4.00;;;;;;;;;;6278957;22;20401;-93
2022/05/19 17:54:37;;;;;;;4.93;4.43;;;;;;;;;;6279657;22;20479;-94
2022/05/19 17:57:43;;;;;;;4.73;3.20;;;;;;;;;;6280101;22;20381;-95
2022/05/19 18:00:37;;;;;;;4.73;4.33;;;;;;;;;;6286828;22;20391;-93
2022/05/19 18:03:03;;;;;;;3.00;2.90;;;;;;;;;;6256329;22;20396;-95
2022/05/19 18:05:49;;;;;;;6.23;3.50;;;;;;;;;;6252275;22;20416;-93
2022/05/19 18:08:55;;;;;;;3.03;2.83;;;;;;;;;;6286355;22;20396;-95
2022/05/19 18:12:01;;;;;;;3.43;3.13;;;;;;;;;;6296696;22;20370;-92
2022/05/19 18:18:21;;;;;;;3.27;3.03;;;;;;;;;;6293587;22;20376;-92
2022/05/19 18:24:14;;;;;;;4.57;3.17;;;;;;;;;;6313916;22;20538;-90
2022/05/19 18:27:19;;;;;;;3.50;3.40;;;;;;;;;;6321496;22;20819;-90
2022/05/19 18:30:42;;;;;;;3.50;3.40;;;;;;;;;;6312069;22;20427;-91
2022/05/19 18:33:48;;;;;;;3.60;3.30;;;;;;;;;;6307691;22;20375;-90
2022/05/19 18:36:19;;;;;;;6.83;4.10;;;;;;;;;;6308334;22;20391;-88
2022/05/19 18:38:48;;;;;;;3.97;3.67;;;;;;;;;;6284622;22;20395;-92
2022/05/19 18:44:57;;;;;;;4.77;4.57;;;;;;;;;;6320274;22;20359;-91
2022/05/19 18:48:00;;;;;;;5.40;4.90;;;;;;;;;;6316165;22;20818;-90
2022/05/19 18:51:06;;;;;;;9.17;4.60;;;;;;;;;;6309358;22;20839;-91
2022/05/19 18:54:12;;;;;;;4.70;4.33;;;;;;;;;;6307041;22;20409;-91
2022/05/19 18:57:18;;;;;;;4.00;3.77;;;;;;;;;;6309901;22;20869;-91
2022/05/19 19:00:26;;;;;;;6.20;5.00;;;;;;;;;;6310582;22;20968;-92
2022/05/19 19:03:35;;;;;;;5.33;4.93;;;;;;;;;;6301686;22;20383;-91
2022/05/19 19:06:38;;;;;;;4.47;4.27;;;;;;;;;;6307125;22;20431;-91
2022/05/19 19:09:44;;;;;;;4.30;4.10;;;;;;;;;;6308185;22;20380;-91
2022/05/19 19:12:52;;;;;;;5.80;5.20;;;;;;;;;;6311317;22;20386;-92
2022/05/19 19:15:56;;;;;;;5.53;5.13;;;;;;;;;;6318655;22;20375;-90
2022/05/19 19:19:04;;;;;;;5.57;5.07;;;;;;;;;;6308632;22;20857;-93
2022/05/19 19:22:08;;;;;;;5.90;5.37;;;;;;;;;;6307525;22;20405;-93
2022/05/19 19:25:13;;;;;;;5.43;5.03;;;;;;;;;;6309221;22;20909;-91
2022/05/19 19:28:21;;;;;;;5.63;5.20;;;;;;;;;;6308125;22;20387;-91
2022/05/19 19:31:08;;;;;;;5.27;4.83;;;;;;;;;;6310473;22;21174;-92
2022/05/19 19:33:34;;;;;;;7.50;6.63;;;;;;;;;;6282973;22;20650;-92
2022/05/19 19:36:03;;;;;;;5.53;5.33;;;;;;;;;;6309905;22;20478;-91
2022/05/19 19:38:29;;;;;;;10.80;6.13;;;;;;;;;;6309597;22;20376;-91
2022/05/19 19:40:55;;;;;;;5.90;5.47;;;;;;;;;;6282016;22;20758;-91
2022/05/19 19:43:20;;;;;;;5.70;5.40;;;;;;;;;;6287359;22;20426;-91
2022/05/19 19:46:06;;;;;;;5.70;5.27;;;;;;;;;;6296267;22;20423;-91
2022/05/19 19:49:12;;;;;;;7.97;7.30;;;;;;;;;;6320315;22;20410;-92
2022/05/19 19:52:21;;;;;;;6.23;5.60;;;;;;;;;;6322817;22;20443;-90
2022/05/19 19:55:33;;;;;;;7.00;6.17;;;;;;;;;;6320470;22;20406;-92
2022/05/19 19:58:35;;;;;;;6.70;6.17;;;;;;;;;;6306505;22;20407;-92
2022/05/19 20:01:07;;;;;;;11.87;7.07;;;;;;;;;;6228833;22;20363;-92
2022/05/19 20:03:53;;;;;;;7.47;6.87;;;;;;;;;;6293731;22;20407;-93
2022/05/19 20:06:58;;;;;;;7.23;6.73;;;;;;;;;;6322261;22;20453;-93
2022/05/19 20:10:05;;;;;;;7.77;6.90;;;;;;;;;;6322463;22;20384;-92
2022/05/19 20:13:10;;;;;;;6.70;6.33;;;;;;;;;;6321191;22;20380;-92
2022/05/19 20:16:19;;;;;;;9.03;6.77;;;;;;;;;;6319008;22;20390;-92
2022/05/19 20:19:27;;;;;;;7.97;7.23;;;;;;;;;;6313871;22;20394;-92
2022/05/19 20:22:34;;;;;;;9.00;8.20;;;;;;;;;;6314354;22;20708;-92
2022/05/19 20:25:43;;;;;;;8.50;7.90;;;;;;;;;;6315114;22;20427;-92
2022/05/19 20:28:54;;;;;;;8.60;7.97;;;;;;;;;;6318281;22;20491;-93
2022/05/19 20:32:00;;;;;;;9.30;8.40;;;;;;;;;;6314344;22;20401;-92
2022/05/19 20:35:23;;;;;;;;;;;;;;;;;;;;;
2022/05/19 20:38:19;;;;;;;9.60;8.97;;;;;;;;;;6203086;23;20386;-94
2022/05/19 20:41:38;;;;;;;9.70;9.00;;;;;;;;;;6218056;23;20386;-94
2022/05/19 20:47:57;;;;;;;10.60;9.20;;;;;;;;;;6160470;23;20435;-91
2022/05/19 20:59:04;;;;;;;12.73;11.70;;;;;;;;;;6248388;22;20516;-91
2022/05/19 21:02:09;;;;;;;16.40;15.00;;;;;;;;;;6302455;22;20768;-91
2022/05/19 21:15:06;;;;;;;15.73;14.33;;;;;;;;;;6289338;22;20414;-93
2022/05/19 21:18:12;;;;;;;16.70;15.40;;;;;;;;;;6306563;22;20509;-91
2022/05/19 21:21:22;;;;;;;17.50;16.20;;;;;;;;;;6306181;22;20576;-90
2022/05/19 21:27:35;;;;;;;14.97;13.93;;;;;;;;;;6317754;22;20439;-92
2022/05/19 21:34:14;;;;;;;14.00;12.83;;;;;;;;;;6258050;22;20386;-91
2022/05/19 21:37:06;;;;;;;14.27;13.17;;;;;;;;;;6305775;22;20441;-92
2022/05/19 21:40:15;;;;;;;13.60;12.60;;;;;;;;;;6276273;22;20417;-91
2022/05/19 21:43:21;;;;;;;14.70;13.70;;;;;;;;;;6303762;22;21062;-92
2022/05/19 21:46:42;;;;;;;13.90;12.80;;;;;;;;;;6308200;22;20805;-93
2022/05/19 21:49:45;;;;;;;14.20;13.30;;;;;;;;;;6303580;22;20461;-92
2022/05/19 21:55:58;;;;;;;16.40;15.00;;;;;;;;;;6276428;22;20430;-92
2022/05/19 21:59:07;;;;;;;15.77;14.30;;;;;;;;;;6273617;22;20501;-91
2022/05/19 22:02:13;;;;;;;17.50;15.87;;;;;;;;;;6279627;22;20373;-91
2022/05/19 22:05:25;;;;;;;16.80;15.30;;;;;;;;;;6276551;22;20407;-91
2022/05/19 22:08:31;;;;;;;18.73;17.13;;;;;;;;;;6273571;22;20716;-90
2022/05/19 22:11:39;;;;;;;19.33;17.37;;;;;;;;;;6272343;22;20387;-91
2022/05/19 22:14:48;;;;;;;19.70;17.70;;;;;;;;;;6274197;22;20490;-91
2022/05/19 22:18:09;;;;;;;18.90;17.30;;;;;;;;;;6273422;22;20914;-92
2022/05/19 22:21:15;;;;;;;20.87;19.00;;;;;;;;;;6275402;22;20809;-91
2022/05/19 22:24:24;;;;;;;20.87;18.77;;;;;;;;;;6277288;22;20406;-91
2022/05/19 22:27:33;;;;;;;20.73;18.83;;;;;;;;;;6274062;22;20440;-90
2022/05/19 22:30:43;;;;;;;23.07;20.87;;;;;;;;;;6275009;22;20426;-92
2022/05/19 22:33:51;;;;;;;25.43;20.50;;;;;;;;;;6267927;22;20388;-92
2022/05/19 22:37:00;;;;;;;22.70;20.60;;;;;;;;;;6276268;22;20419;-92
2022/05/19 22:40:08;;;;;;;22.77;20.60;;;;;;;;;;6277175;22;20416;-92
2022/05/19 22:43:14;;;;;;;22.33;20.03;;;;;;;;;;6275118;22;20396;-93
2022/05/19 22:46:32;;;;;;;22.10;19.90;;;;;;;;;;6281699;22;20467;-92
2022/05/19 22:49:38;;;;;;;23.67;21.40;;;;;;;;;;6289630;22;20891;-90
2022/05/19 22:52:44;;;;;;;23.83;21.80;;;;;;;;;;6285434;22;20448;-91
2022/05/19 22:55:50;;;;;;;21.13;19.23;;;;;;;;;;6284106;22;20380;-91
2022/05/19 22:58:56;;;;;;;22.93;18.90;;;;;;;;;;6279814;22;20477;-91
2022/05/19 23:02:02;;;;;;;20.93;19.13;;;;;;;;;;6276158;22;20867;-90
2022/05/19 23:05:08;;;;;;;20.10;18.30;;;;;;;;;;6274624;22;20998;-91
2022/05/19 23:08:14;;;;;;;19.90;18.10;;;;;;;;;;6273958;22;20435;-91
2022/05/19 23:11:20;;;;;;;21.50;19.20;;;;;;;;;;6276316;22;20869;-92
2022/05/19 23:14:29;;;;;;;19.00;17.20;;;;;;;;;;6275379;22;20441;-91
2022/05/19 23:17:35;;;;;;;20.37;18.43;;;;;;;;;;6273010;22;20395;-92
2022/05/19 23:20:47;;;;;;;21.43;18.40;;;;;;;;;;6275447;22;20368;-92
2022/05/19 23:23:52;;;;;;;18.57;16.87;;;;;;;;;;6267081;22;20478;-91
2022/05/19 23:27:01;;;;;;;19.87;17.80;;;;;;;;;;6274014;22;20435;-94
2022/05/19 23:30:07;;;;;;;20.43;18.53;;;;;;;;;;6275666;22;21056;-92
2022/05/19 23:36:04;;;;;;;19.83;18.20;;;;;;;;;;6275756;22;20383;-92
2022/05/19 23:39:10;;;;;;;30.03;20.73;;;;;;;;;;6275149;22;20373;-93
2022/05/19 23:42:16;;;;;;;29.70;21.50;;;;;;;;;;6274727;22;20454;-93
2022/05/19 23:45:21;;;;;;;27.10;21.23;;;;;;;;;;6275293;22;20395;-92
2022/05/19 23:48:30;;;;;;;28.37;25.33;;;;;;;;;;6283639;22;20389;-93